Estación Meteorológica Peña el Pijo (Robertgarden) [ 12/17/17 01:39:57 CET ]

Fecha Hora Presion(HPa) Temp (°C) Humedad % Rocio (°C) Viento ( m/s) Direccion Lluvia 1Hora(mm) Lluvia 24H(mm) LLuvia Total(mm)
2017-Dec-14 01:01:34 1013.500 5.8 69 0.6         16.57
2017-Dec-14 02:01:50 1012.900 5.0 70 0.0         16.57
2017-Dec-14 03:02:46 1012.700 3.9 74 -0.3         16.57
2017-Dec-14 04:04:09 1012.700 2.9 75 -1.1         16.57
2017-Dec-14 05:01:31 1011.800 2.6 76 -1.2         16.57
2017-Dec-14 06:01:28 1011.400 2.8 77 -0.8         16.57
2017-Dec-14 07:01:24 1011.500 2.9 75 -1.1         16.57
2017-Dec-14 08:01:36 1011.600 3.0 76 -0.8         16.57
2017-Dec-14 09:01:40 1011.300 3.6 78 0.1         16.57
2017-Dec-14 10:01:32 1011.400 7.9 76 3.9         16.57
2017-Dec-14 11:01:35 1011.400 13.1 65 6.6         16.57
2017-Dec-14 12:01:40 1011.300 12.8 64 6.1         16.57
2017-Dec-14 13:01:18 1010.500 12.5 64 5.8         16.57
2017-Dec-14 14:01:28 1009.700 13.6 62 6.4         16.57
2017-Dec-14 15:01:08 1008.600 13.1 62 5.9         16.57
2017-Dec-14 16:01:53 1008.700 12.1 64 5.5         16.57
2017-Dec-14 17:01:37 1008.700 10.9 65 4.5         16.57
2017-Dec-14 18:01:43 1008.500 9.8 68 4.2         16.57
2017-Dec-14 19:01:59 1008.500 8.6 72 3.8 3.3 N     16.57
2017-Dec-14 20:02:04 1008.300 8.4 75 4.2         16.57
2017-Dec-14 21:01:55 1008.100 8.5 75 4.3         16.57
2017-Dec-14 22:01:40 1007.300 8.9 75 4.7 1.5 WNW     16.57
2017-Dec-14 23:02:05 1007.000 9.2 75 4.9 0.7 NW     16.57

Temperatura Máxima:13°    Temperatura Mínima:
Presión Máxima:1013.500 Hpa    Presión Mínima:1007.000 Hpa


Volver